Time;durP1;ratioP1;P1;durP2;ratioP2;P2;SDS_P1;SDS_P2;PMS_P1;PMS_P2;Temp;Humidity;BMP_temperature;BMP_pressure;BME280_temperature;BME280_humidity;BME280_pressure;Samples;Min_cycle;Max_cycle;Signal;HPM_P1;HPM_P2
2021/05/01 00:00:16;;;;;;;14.95;9.63;;;;;;;12.04;51.88;100010.69;5038655;27;97777;-83
2021/05/01 00:02:43;;;;;;;13.70;9.43;;;;;;;11.98;52.46;100012.69;5056564;27;101638;-85
2021/05/01 00:05:09;;;;;;;14.05;9.55;;;;;;;11.90;52.24;100009.56;5052415;27;100900;-82
2021/05/01 00:07:35;;;;;;;15.00;9.40;;;;;;;12.06;52.36;100024.66;5053418;27;96982;-83
2021/05/01 00:10:01;;;;;;;12.88;9.40;;;;;;;12.02;52.13;100029.19;5029465;27;97004;-83
2021/05/01 00:12:27;;;;;;;13.77;9.07;;;;;;;12.03;52.58;100009.84;5039659;27;100734;-83
2021/05/01 00:14:52;;;;;;;14.43;9.15;;;;;;;11.91;52.36;100020.91;5050807;27;100978;-83
2021/05/01 00:17:18;;;;;;;15.45;9.95;;;;;;;12.03;52.50;100016.88;5034964;27;97520;-83
2021/05/01 00:19:44;;;;;;;14.00;10.10;;;;;;;12.07;52.17;100007.94;5058492;27;97388;-86
2021/05/01 00:22:09;;;;;;;13.82;10.38;;;;;;;12.06;52.30;100008.84;5076280;27;98449;-83
2021/05/01 00:24:35;;;;;;;18.15;11.10;;;;;;;12.08;52.32;100007.88;5052536;27;100070;-83
2021/05/01 00:27:00;;;;;;;16.60;10.23;;;;;;;12.12;52.19;100006.78;5049912;27;96640;-82
2021/05/01 00:29:26;;;;;;;16.13;10.02;;;;;;;12.13;52.38;100002.38;5043434;27;97158;-84
2021/05/01 00:31:51;;;;;;;15.05;9.70;;;;;;;12.03;52.51;100004.59;5069598;27;98629;-83
2021/05/01 00:34:17;;;;;;;14.73;10.15;;;;;;;12.04;52.34;100014.19;5039647;27;98419;-83
2021/05/01 00:36:43;;;;;;;13.20;9.75;;;;;;;12.11;52.79;100015.63;5032686;27;96630;-85
2021/05/01 00:39:08;;;;;;;12.93;9.63;;;;;;;12.15;52.41;100011.06;5058634;27;96888;-83
2021/05/01 00:41:34;;;;;;;19.67;10.40;;;;;;;12.14;52.27;100014.63;5038937;27;101363;-83
2021/05/01 00:44:03;;;;;;;13.38;9.43;;;;;;;12.13;52.09;100012.91;5038359;27;100124;-83
2021/05/01 00:46:29;;;;;;;14.45;9.85;;;;;;;12.12;52.41;100017.31;5056529;27;96968;-83
2021/05/01 00:48:55;;;;;;;13.70;9.88;;;;;;;11.99;52.74;100006.50;5038904;27;97665;-83
2021/05/01 00:51:21;;;;;;;14.68;10.15;;;;;;;11.99;52.61;100003.03;5035640;27;101274;-83
2021/05/01 00:53:46;;;;;;;17.25;10.38;;;;;;;11.93;52.57;100004.16;5046012;27;100823;-83
2021/05/01 00:56:12;;;;;;;15.27;9.90;;;;;;;11.87;53.08;100008.81;5046590;27;96681;-84
2021/05/01 00:58:38;;;;;;;14.27;9.95;;;;;;;11.83;53.21;100007.22;5053459;27;97005;-84
2021/05/01 01:03:37;;;;;;;15.98;10.52;;;;;;;11.94;53.13;100005.84;5052754;27;99289;-84
2021/05/01 01:06:03;;;;;;;17.27;10.20;;;;;;;11.98;52.62;99996.91;5039417;27;96728;-84
2021/05/01 01:08:28;;;;;;;14.57;9.85;;;;;;;11.87;53.24;99983.38;5038970;27;97039;-82
2021/05/01 01:10:54;;;;;;;13.55;9.25;;;;;;;11.95;52.85;99985.66;5033361;27;101399;-84
2021/05/01 01:13:20;;;;;;;15.43;9.68;;;;;;;11.99;52.89;99974.09;5038900;27;101663;-84
2021/05/01 01:15:46;;;;;;;14.52;9.10;;;;;;;11.90;53.06;99988.50;5035257;27;96660;-85
2021/05/01 01:18:11;;;;;;;18.08;10.60;;;;;;;11.81;53.76;99985.38;5039454;27;96869;-83
2021/05/01 01:20:37;;;;;;;15.93;10.43;;;;;;;11.88;53.45;99990.34;5035129;27;101010;-83
2021/05/01 01:23:03;;;;;;;18.52;11.38;;;;;;;11.91;53.42;99986.72;5043184;27;100039;-82
2021/05/01 01:25:29;;;;;;;14.48;10.75;;;;;;;11.92;53.13;99983.16;5056413;27;96635;-84
2021/05/01 01:27:55;;;;;;;16.00;11.45;;;;;;;11.90;53.55;99987.66;5036721;27;97104;-83
2021/05/01 01:30:25;;;;;;;14.00;10.93;;;;;;;11.80;53.80;99989.78;5045514;27;101591;-83
2021/05/01 01:32:52;;;;;;;14.67;10.80;;;;;;;11.86;53.49;99997.44;5048646;27;99610;-84
2021/05/01 01:35:17;;;;;;;15.27;10.82;;;;;;;11.90;53.58;99995.56;5050904;27;97170;-84
2021/05/01 01:37:45;;;;;;;17.08;11.32;;;;;;;11.90;53.61;99992.94;5074461;27;97170;-85
2021/05/01 01:40:12;;;;;;;19.45;11.43;;;;;;;11.90;53.58;99985.88;5032422;27;101174;-82
2021/05/01 01:42:40;;;;;;;13.82;10.82;;;;;;;11.91;53.71;99990.22;5043236;27;101010;-84
2021/05/01 01:45:07;;;;;;;12.70;10.25;;;;;;;11.87;53.24;99980.75;5058065;27;97144;-84
2021/05/01 01:47:32;;;;;;;17.35;11.57;;;;;;;11.91;53.51;99970.94;5053632;27;96851;-85
2021/05/01 01:49:58;;;;;;;17.30;10.57;;;;;;;11.76;53.99;99965.41;5038826;27;101908;-82
2021/05/01 01:52:24;;;;;;;15.63;10.85;;;;;;;11.78;53.78;99979.38;5030952;27;101582;-82
2021/05/01 01:54:49;;;;;;;17.58;11.40;;;;;;;11.73;54.24;99975.22;5042048;27;96733;-83
2021/05/01 01:57:15;;;;;;;14.23;10.32;;;;;;;11.67;54.12;99962.34;5048522;27;96734;-83
2021/05/01 01:59:42;;;;;;;18.02;12.15;;;;;;;11.63;54.24;99969.50;5055701;27;101556;-83
2021/05/01 02:02:08;;;;;;;13.73;10.98;;;;;;;11.54;53.95;99968.13;5024446;27;101443;-85
2021/05/01 02:04:34;;;;;;;14.02;10.38;;;;;;;11.55;54.17;99972.47;5041483;27;96961;-84
2021/05/01 02:07:00;;;;;;;16.20;10.77;;;;;;;11.56;54.27;99968.06;5038033;27;97057;-84
2021/05/01 02:09:26;;;;;;;17.73;11.57;;;;;;;11.61;54.51;99975.78;5023546;27;101696;-84
2021/05/01 02:11:52;;;;;;;17.27;11.20;;;;;;;11.60;54.14;99972.25;5047575;27;101235;-84
2021/05/01 02:14:18;;;;;;;14.60;10.32;;;;;;;11.63;54.64;99966.88;5037271;27;97010;-83
2021/05/01 02:16:44;;;;;;;12.95;10.07;;;;;;;11.62;54.43;99965.16;5037283;27;97631;-85
2021/05/01 02:19:09;;;;;;;15.18;11.25;;;;;;;11.57;54.76;99962.72;5037034;27;101657;-84
2021/05/01 02:21:35;;;;;;;15.70;11.32;;;;;;;11.55;54.69;99966.38;5047628;27;101339;-84
2021/05/01 02:24:01;;;;;;;13.77;10.50;;;;;;;11.52;54.45;99959.47;5051603;27;96982;-84
2021/05/01 02:26:26;;;;;;;14.93;10.60;;;;;;;11.49;55.01;99958.72;5030418;27;96932;-84
2021/05/01 02:28:53;;;;;;;17.15;10.85;;;;;;;11.47;54.78;99947.44;5036118;27;101588;-83
2021/05/01 02:31:18;;;;;;;14.88;10.75;;;;;;;11.55;55.17;99945.34;5048888;27;101761;-84
2021/05/01 02:33:44;;;;;;;14.93;10.90;;;;;;;11.56;55.13;99947.88;5037844;27;96753;-85
2021/05/01 02:36:10;;;;;;;17.70;12.35;;;;;;;11.43;55.26;99946.75;5044319;27;97040;-84
2021/05/01 02:38:35;;;;;;;17.00;12.23;;;;;;;11.28;55.45;99931.59;5057058;27;97923;-84
2021/05/01 02:41:01;;;;;;;17.58;12.60;;;;;;;11.24;56.31;99937.94;5057505;27;98381;-83
2021/05/01 02:43:27;;;;;;;18.75;12.90;;;;;;;11.27;56.50;99932.53;5045638;27;99476;-83
2021/05/01 02:45:52;;;;;;;18.55;13.38;;;;;;;11.29;56.31;99920.19;5048512;27;96843;-84
2021/05/01 02:48:18;;;;;;;20.05;12.98;;;;;;;11.33;56.22;99925.25;5037140;27;101163;-84
2021/05/01 02:50:43;;;;;;;16.00;11.98;;;;;;;11.26;56.55;99925.59;5048233;27;101677;-86
2021/05/01 02:53:10;;;;;;;18.52;13.65;;;;;;;11.27;56.47;99925.50;5059432;27;96652;-84
2021/05/01 02:55:36;;;;;;;23.27;16.25;;;;;;;11.18;57.35;99931.16;5042133;27;96753;-84
2021/05/01 02:58:01;;;;;;;21.45;14.02;;;;;;;11.11;57.45;99929.69;5042343;27;101241;-84
2021/05/01 03:00:27;;;;;;;21.35;15.35;;;;;;;11.12;58.12;99914.81;5051532;27;101251;-84
2021/05/01 03:02:54;;;;;;;20.27;15.38;;;;;;;11.13;57.83;99903.38;5037051;27;97372;-83
2021/05/01 03:05:20;;;;;;;21.90;14.90;;;;;;;11.08;58.23;99907.06;5054355;27;97066;-84
2021/05/01 03:07:45;;;;;;;23.90;16.60;;;;;;;11.13;58.47;99913.88;5059708;27;98108;-86
2021/05/01 03:10:19;;;;;;;23.63;15.95;;;;;;;10.93;59.63;99912.09;5057566;27;101492;-85
2021/05/01 03:12:45;;;;;;;20.05;16.15;;;;;;;10.94;59.88;99917.31;5058548;27;96727;-83
2021/05/01 03:15:12;;;;;;;25.17;15.98;;;;;;;11.00;59.75;99926.69;5064978;27;96905;-83
2021/05/01 03:17:38;;;;;;;24.73;15.88;;;;;;;10.97;59.96;99921.56;5054981;27;100420;-84
2021/05/01 03:20:05;;;;;;;24.52;16.30;;;;;;;10.97;59.92;99943.44;5044097;27;101442;-84
2021/05/01 03:22:31;;;;;;;21.15;15.70;;;;;;;11.05;60.19;99943.09;5014342;27;96724;-83
2021/05/01 03:24:57;;;;;;;22.80;15.55;;;;;;;10.98;59.97;99939.03;5043932;27;97840;-83
2021/05/01 03:27:23;;;;;;;23.85;16.23;;;;;;;10.99;60.21;99945.97;5047352;27;98003;-84
2021/05/01 03:29:48;;;;;;;22.35;16.58;;;;;;;11.07;59.67;99959.66;5032317;27;101145;-86
2021/05/01 03:32:14;;;;;;;23.67;16.58;;;;;;;11.09;59.75;99958.66;5054414;27;96991;-84
2021/05/01 03:34:40;;;;;;;24.20;17.02;;;;;;;11.16;59.99;99953.16;5041098;27;97199;-83
2021/05/01 03:37:05;;;;;;;20.20;15.88;;;;;;;11.10;60.16;99952.50;5058513;27;98392;-84
2021/05/01 03:39:31;;;;;;;23.33;16.25;;;;;;;11.04;60.61;99947.50;5036568;27;101796;-84
2021/05/01 03:41:57;;;;;;;25.15;16.02;;;;;;;11.10;60.54;99951.63;5023440;27;97331;-83
2021/05/01 03:44:22;;;;;;;21.80;16.35;;;;;;;11.16;60.62;99961.03;5013301;27;96938;-84
2021/05/01 03:46:48;;;;;;;22.45;17.38;;;;;;;11.21;60.37;99962.56;5016841;27;101662;-85
2021/05/01 03:49:14;;;;;;;24.05;17.55;;;;;;;11.22;60.68;99963.41;5031254;27;97926;-84
2021/05/01 03:51:39;;;;;;;24.40;15.98;;;;;;;11.24;60.79;99970.31;5009721;27;96953;-83
2021/05/01 03:54:05;;;;;;;21.92;15.68;;;;;;;11.26;61.25;99965.84;5040033;27;98125;-84
2021/05/01 03:56:32;;;;;;;25.90;16.17;;;;;;;11.29;61.06;99967.50;5009774;27;101209;-83
2021/05/01 03:58:57;;;;;;;23.50;16.88;;;;;;;11.28;61.24;99964.00;5028784;27;101794;-84
2021/05/01 04:01:23;;;;;;;25.45;17.60;;;;;;;11.28;61.29;99973.66;5016786;27;96875;-85
2021/05/01 04:03:48;;;;;;;25.88;18.50;;;;;;;11.24;61.62;99966.81;5047550;27;96683;-86
2021/05/01 04:06:14;;;;;;;25.33;17.65;;;;;;;11.22;61.82;99963.41;5022815;27;101349;-86
2021/05/01 04:08:40;;;;;;;24.33;16.95;;;;;;;11.24;62.31;99961.56;5009510;27;101007;-86
2021/05/01 04:11:06;;;;;;;27.80;18.50;;;;;;;11.19;62.73;99968.78;5036024;27;96730;-85
2021/05/01 04:13:32;;;;;;;25.33;18.00;;;;;;;11.12;62.72;99965.56;5036562;27;97387;-86
2021/05/01 04:15:58;;;;;;;26.92;19.52;;;;;;;10.98;63.67;99960.03;5022019;27;99812;-86
2021/05/01 04:18:24;;;;;;;30.98;20.02;;;;;;;11.02;63.85;99961.59;5046406;27;100424;-85
2021/05/01 04:20:49;;;;;;;27.60;18.20;;;;;;;10.98;63.87;99952.16;5019797;27;96770;-86
2021/05/01 04:23:15;;;;;;;27.83;18.95;;;;;;;10.94;63.82;99959.31;5013539;27;96650;-84
2021/05/01 04:25:41;;;;;;;28.65;18.73;;;;;;;10.91;63.29;99959.44;5019990;27;101324;-85
2021/05/01 04:28:06;;;;;;;31.92;19.35;;;;;;;10.93;64.17;99956.75;5018918;27;101433;-83
2021/05/01 04:30:33;;;;;;;25.25;18.92;;;;;;;10.92;63.86;99958.50;5019319;27;96737;-83
2021/05/01 04:32:58;;;;;;;26.95;18.85;;;;;;;10.87;63.77;99968.34;5030290;27;96843;-85
2021/05/01 04:35:24;;;;;;;26.85;19.23;;;;;;;10.68;64.10;99967.41;5035465;27;101692;-84
2021/05/01 04:37:50;;;;;;;33.00;20.58;;;;;;;10.71;64.00;99970.75;5029643;27;101198;-85
2021/05/01 04:40:15;;;;;;;26.98;18.75;;;;;;;10.72;64.21;99975.06;5047689;27;97231;-84
2021/05/01 04:42:47;;;;;;;27.30;19.52;;;;;;;10.74;63.49;99975.88;5043402;27;96986;-85
2021/05/01 04:45:15;;;;;;;28.88;18.67;;;;;;;10.76;64.17;99971.44;5034376;27;102025;-85
2021/05/01 04:47:42;;;;;;;27.80;19.23;;;;;;;10.60;64.09;99967.69;5031541;27;101420;-84
2021/05/01 04:50:08;;;;;;;28.08;20.02;;;;;;;10.55;64.78;99967.00;5029745;27;96769;-85
2021/05/01 04:52:34;;;;;;;29.10;18.60;;;;;;;10.55;64.85;99956.50;5049836;27;96906;-85
2021/05/01 04:55:04;;;;;;;28.33;20.50;;;;;;;10.58;64.86;99951.16;5050866;27;98408;-84
2021/05/01 04:57:30;;;;;;;28.70;19.65;;;;;;;10.53;65.28;99961.84;5049867;27;101367;-83
2021/05/01 04:59:55;;;;;;;25.17;19.15;;;;;;;10.39;65.34;99957.13;5042451;27;97898;-84
2021/05/01 05:02:21;;;;;;;25.48;18.55;;;;;;;10.40;65.06;99952.72;5048815;27;96972;-83
2021/05/01 05:04:46;;;;;;;29.95;18.70;;;;;;;10.48;64.87;99953.28;5036983;27;100339;-84
2021/05/01 05:07:12;;;;;;;27.55;20.60;;;;;;;10.55;65.17;99946.03;5040231;27;101574;-84
2021/05/01 05:09:39;;;;;;;30.13;21.27;;;;;;;10.58;64.98;99949.38;5040591;27;96819;-82
2021/05/01 05:12:05;;;;;;;28.58;20.50;;;;;;;10.56;64.64;99942.47;5030331;27;97123;-84
2021/05/01 05:14:30;;;;;;;31.50;20.83;;;;;;;10.41;65.51;99936.06;5042697;27;101204;-84
2021/05/01 05:16:56;;;;;;;27.95;20.25;;;;;;;10.42;65.49;99936.00;5046891;27;101466;-85
2021/05/01 05:19:23;;;;;;;29.98;21.35;;;;;;;10.40;65.38;99931.75;5033779;27;96931;-85
2021/05/01 05:21:48;;;;;;;25.67;18.83;;;;;;;10.39;65.51;99930.03;5037733;27;96937;-86
2021/05/01 05:24:14;;;;;;;26.50;20.02;;;;;;;10.35;65.39;99934.53;5034529;27;101417;-84
2021/05/01 05:26:39;;;;;;;26.25;19.88;;;;;;;10.32;65.19;99939.06;5046996;27;101278;-84
2021/05/01 05:29:05;;;;;;;23.88;19.05;;;;;;;10.37;64.94;99940.59;5043380;27;96848;-85
2021/05/01 05:31:31;;;;;;;25.38;18.08;;;;;;;10.29;65.25;99950.50;5050462;27;97153;-85
2021/05/01 05:33:56;;;;;;;25.92;18.23;;;;;;;10.27;65.67;99965.47;5036934;27;101093;-85
2021/05/01 05:36:22;;;;;;;24.48;18.52;;;;;;;10.36;65.68;99983.47;5058573;27;101215;-84
2021/05/01 05:38:47;;;;;;;22.80;18.75;;;;;;;10.38;65.21;99968.56;5053912;27;96755;-86
2021/05/01 05:41:13;;;;;;;24.88;17.98;;;;;;;10.48;65.34;99983.94;5041044;27;96867;-85
2021/05/01 05:43:39;;;;;;;25.27;18.40;;;;;;;10.56;65.24;99980.09;5035631;27;101858;-85
2021/05/01 05:46:14;;;;;;;24.20;17.55;;;;;;;10.53;65.27;99976.72;5049731;27;100537;-83
2021/05/01 05:48:40;;;;;;;30.38;18.58;;;;;;;10.52;64.95;99975.00;5051460;27;97009;-82
2021/05/01 05:51:06;;;;;;;25.42;18.27;;;;;;;10.50;64.07;99976.84;5031261;27;97675;-83
2021/05/01 05:53:33;;;;;;;22.95;16.80;;;;;;;10.49;64.14;99975.97;5058268;27;98905;-83
2021/05/01 05:55:59;;;;;;;23.00;17.60;;;;;;;10.42;64.85;99983.25;5053023;27;98466;-84
2021/05/01 05:58:24;;;;;;;25.70;17.48;;;;;;;10.52;64.80;99975.00;5038485;27;96749;-83
2021/05/01 06:00:50;;;;;;;23.90;17.25;;;;;;;10.42;64.84;99974.53;5041721;27;96927;-86
2021/05/01 06:03:17;;;;;;;21.23;17.52;;;;;;;10.44;64.95;99970.06;5053044;27;98672;-84
2021/05/01 06:05:46;;;;;;;22.27;16.67;;;;;;;10.44;65.34;99972.66;5028659;27;100561;-85
2021/05/01 06:08:12;;;;;;;24.83;18.52;;;;;;;10.40;65.26;99976.34;5048568;27;97192;-85
2021/05/01 06:10:39;;;;;;;24.88;18.42;;;;;;;10.48;65.27;99978.69;5038913;27;96872;-86
2021/05/01 06:13:05;;;;;;;25.38;17.90;;;;;;;10.49;65.53;99978.59;5038513;27;101348;-84
2021/05/01 06:15:32;;;;;;;25.10;17.95;;;;;;;10.43;65.21;99982.31;5051633;27;99677;-84
2021/05/01 06:17:59;;;;;;;24.85;18.00;;;;;;;10.42;65.03;99977.16;5052887;27;97348;-84
2021/05/01 06:20:26;;;;;;;26.48;18.63;;;;;;;10.43;65.17;99973.59;5031538;27;96872;-85
2021/05/01 06:22:53;;;;;;;27.92;17.65;;;;;;;10.47;64.95;99979.56;5040395;27;101708;-85
2021/05/01 06:25:18;;;;;;;30.80;21.25;;;;;;;10.50;65.20;99974.22;5048852;27;98324;-83
2021/05/01 06:27:45;;;;;;;25.50;18.42;;;;;;;10.36;65.51;99982.63;5075111;27;96884;-83
2021/05/01 06:30:12;;;;;;;27.85;18.83;;;;;;;10.41;65.17;99970.16;5067932;27;97196;-83
2021/05/01 06:32:38;;;;;;;26.45;19.63;;;;;;;10.42;65.32;99977.16;5044856;27;101752;-83
2021/05/01 06:35:05;;;;;;;23.58;18.08;;;;;;;10.41;65.53;99986.78;5051821;27;97465;-84
2021/05/01 06:37:30;;;;;;;28.08;20.60;;;;;;;10.47;65.80;99983.09;5035751;27;97378;-84
2021/05/01 06:40:02;;;;;;;26.80;18.83;;;;;;;10.54;65.47;99992.41;5040034;27;97100;-84
2021/05/01 06:42:30;;;;;;;;;;;;;;;10.59;66.36;99992.25;5044843;27;101027;-84
2021/05/01 06:45:12;;;;;;;25.42;17.65;;;;;;;10.63;64.77;99997.28;5049684;27;97909;-85
2021/05/01 06:47:47;;;;;;;23.50;17.85;;;;;;;10.71;64.44;99998.78;5037019;27;96745;-84
2021/05/01 06:50:14;;;;;;;24.15;18.90;;;;;;;10.74;64.56;99993.41;5049812;27;97247;-85
2021/05/01 06:52:45;;;;;;;26.17;18.80;;;;;;;10.70;64.50;99990.03;5035117;27;101324;-85
2021/05/01 06:55:13;;;;;;;26.27;19.17;;;;;;;10.70;65.23;99990.03;5045282;27;97935;-85
2021/05/01 06:57:43;;;;;;;25.25;19.25;;;;;;;10.71;64.89;99990.91;5032732;27;98083;-87
2021/05/01 07:00:09;;;;;;;26.58;19.00;;;;;;;10.66;64.94;99993.69;5047788;27;97877;-87
2021/05/01 07:02:42;;;;;;;26.55;20.08;;;;;;;10.69;64.82;99988.31;5046582;27;98365;-87
2021/05/01 07:05:09;;;;;;;26.15;19.30;;;;;;;10.69;65.17;100004.06;5050433;27;98012;-89
2021/05/01 07:07:35;;;;;;;27.38;18.80;;;;;;;10.68;65.60;99988.41;5061900;27;97980;-85
2021/05/01 07:10:05;;;;;;;25.60;19.40;;;;;;;10.80;64.91;99986.13;5045609;27;96880;-87
2021/05/01 07:12:31;;;;;;;24.33;18.30;;;;;;;10.82;65.51;99981.69;5066443;27;97532;-86
2021/05/01 07:15:02;;;;;;;28.20;19.92;;;;;;;10.92;64.99;99987.41;5036404;27;101239;-85
2021/05/01 07:17:27;;;;;;;23.60;18.40;;;;;;;10.91;63.99;99976.94;5051930;27;97559;-87
2021/05/01 07:19:53;;;;;;;24.70;18.90;;;;;;;10.97;63.67;99972.31;5047474;27;97403;-85
2021/05/01 07:22:18;;;;;;;24.95;19.65;;;;;;;11.01;63.91;99966.00;5044352;27;97907;-88
2021/05/01 07:24:44;;;;;;;27.38;18.65;;;;;;;11.20;63.38;99975.75;5032672;27;101072;-86
2021/05/01 07:27:11;;;;;;;24.52;18.65;;;;;;;11.22;62.92;99971.28;5045014;27;98744;-86
2021/05/01 07:29:38;;;;;;;23.67;18.95;;;;;;;11.29;63.09;99978.00;5052233;27;97526;-86
2021/05/01 07:32:08;;;;;;;22.92;17.80;;;;;;;11.27;62.37;99983.31;5050814;27;101564;-87
2021/05/01 07:34:35;;;;;;;21.85;17.05;;;;;;;11.50;62.39;99984.09;5063729;27;100053;-87
2021/05/01 07:37:06;;;;;;;21.85;17.25;;;;;;;11.71;62.26;99993.69;5049117;27;97303;-86
2021/05/01 07:39:33;;;;;;;22.13;17.42;;;;;;;11.71;60.16;99996.31;5050221;27;96937;-84
2021/05/01 07:42:00;;;;;;;23.08;18.20;;;;;;;11.60;60.90;99998.56;5042888;27;100250;-85
2021/05/01 07:44:28;;;;;;;22.85;19.50;;;;;;;11.51;61.29;99994.53;5051727;27;100936;-83
2021/05/01 07:46:55;;;;;;;25.38;18.48;;;;;;;11.46;61.88;99982.53;5046819;27;97829;-87
2021/05/01 07:49:21;;;;;;;22.73;17.88;;;;;;;11.55;61.40;99993.50;5045645;27;96958;-85
2021/05/01 07:51:46;;;;;;;25.70;17.88;;;;;;;11.72;61.98;99997.16;5045083;27;101494;-86
2021/05/01 07:54:12;;;;;;;20.83;15.13;;;;;;;11.77;60.82;99990.78;5081932;27;98193;-87
2021/05/01 07:56:40;;;;;;;20.55;16.08;;;;;;;11.75;59.84;99997.91;5044370;27;97235;-85
2021/05/01 07:59:08;;;;;;;19.30;17.15;;;;;;;11.91;59.54;99989.34;5045342;27;97571;-87
2021/05/01 08:01:33;;;;;;;22.80;16.85;;;;;;;11.96;60.04;99982.97;5048086;27;101142;-86
2021/05/01 08:03:59;;;;;;;20.33;16.38;;;;;;;12.06;59.63;99977.28;5044145;27;101814;-87
2021/05/01 08:06:27;;;;;;;24.33;19.33;;;;;;;12.20;58.76;99981.00;5044314;27;96896;-87
2021/05/01 08:08:55;;;;;;;26.25;20.65;;;;;;;12.26;59.45;99974.59;5029769;27;97291;-87
2021/05/01 08:11:21;;;;;;;24.73;20.20;;;;;;;12.41;59.05;99987.03;5049054;27;97940;-84
2021/05/01 08:13:47;;;;;;;22.85;19.42;;;;;;;12.43;58.43;99990.44;5029601;27;101560;-86
2021/05/01 08:16:16;;;;;;;23.63;17.90;;;;;;;12.36;58.63;99990.81;5064060;27;98392;-85
2021/05/01 08:18:42;;;;;;;20.92;16.27;;;;;;;12.26;57.56;99984.28;5046673;27;96890;-85
2021/05/01 08:21:08;;;;;;;18.40;15.13;;;;;;;12.28;57.55;100001.69;5048506;27;101679;-85
2021/05/01 08:23:36;;;;;;;19.98;15.90;;;;;;;12.34;57.86;99997.94;5045581;27;98131;-86
2021/05/01 08:26:03;;;;;;;16.70;14.27;;;;;;;12.43;57.74;99993.09;5025616;27;98675;-84
2021/05/01 08:28:28;;;;;;;19.20;14.88;;;;;;;12.61;57.79;100006.31;5037174;27;96826;-86
2021/05/01 08:30:54;;;;;;;16.02;12.93;;;;;;;12.83;57.48;99995.63;5043371;27;97612;-87
2021/05/01 08:33:20;;;;;;;19.30;13.57;;;;;;;12.93;57.07;99999.50;5035443;27;101700;-84
2021/05/01 08:35:46;;;;;;;18.33;14.52;;;;;;;13.01;57.63;100002.63;5043666;27;97352;-84
2021/05/01 08:38:12;;;;;;;19.40;15.43;;;;;;;12.91;56.48;99991.69;5063405;27;98064;-86
2021/05/01 08:40:42;;;;;;;19.88;16.17;;;;;;;12.73;56.86;100002.25;5042946;27;101545;-85
2021/05/01 08:43:08;;;;;;;17.98;13.77;;;;;;;12.86;56.59;100011.28;5063914;27;97627;-85
2021/05/01 08:45:34;;;;;;;17.70;14.70;;;;;;;12.98;56.46;100002.75;5043712;27;96789;-86
2021/05/01 08:48:01;;;;;;;20.35;15.23;;;;;;;13.17;55.93;100004.47;5063284;27;97140;-83
2021/05/01 08:50:27;;;;;;;18.88;15.98;;;;;;;13.22;55.37;100003.31;5046828;27;98429;-83
2021/05/01 08:52:56;;;;;;;21.98;17.30;;;;;;;13.29;55.70;100002.13;5066268;27;98424;-85
2021/05/01 08:55:25;;;;;;;19.83;15.68;;;;;;;13.40;55.57;99998.09;5034250;27;97502;-84
2021/05/01 08:57:52;;;;;;;19.08;14.70;;;;;;;13.36;55.33;100000.03;5071401;27;97524;-83
2021/05/01 09:00:18;;;;;;;18.90;14.43;;;;;;;13.45;55.09;99996.94;5032101;27;100205;-84
2021/05/01 09:02:44;;;;;;;17.65;14.70;;;;;;;13.44;54.89;100004.91;5049587;27;101557;-85
2021/05/01 09:05:10;;;;;;;17.25;14.20;;;;;;;13.44;55.07;100003.16;5044307;27;97183;-88
2021/05/01 09:07:43;;;;;;;15.93;13.07;;;;;;;13.58;54.84;100002.41;5048918;27;97313;-87
2021/05/01 09:10:10;;;;;;;16.77;12.93;;;;;;;13.69;54.91;100001.88;5048925;27;98491;-86
2021/05/01 09:12:44;;;;;;;16.67;11.70;;;;;;;13.64;53.25;99996.81;5063378;27;98296;-87
2021/05/01 09:15:20;;;;;;;13.40;10.38;;;;;;;13.69;52.92;99997.44;5047758;27;97036;-87
2021/05/01 09:17:47;;;;;;;12.43;10.23;;;;;;;13.51;53.11;99988.69;5062094;27;97104;-88
2021/05/01 09:20:15;;;;;;;16.23;11.48;;;;;;;13.56;53.48;99996.38;5036945;27;99493;-88
2021/05/01 09:22:51;;;;;;;14.95;10.70;;;;;;;13.55;53.32;99970.94;5036076;27;101481;-87
2021/05/01 09:25:16;;;;;;;14.82;11.55;;;;;;;13.67;53.36;99967.69;5048299;27;96713;-86
2021/05/01 09:27:42;;;;;;;15.82;11.88;;;;;;;13.78;53.57;99967.94;5037288;27;96907;-85
2021/05/01 09:30:13;;;;;;;15.15;12.27;;;;;;;13.73;53.41;99969.13;5018931;27;101436;-86
2021/05/01 09:32:39;;;;;;;15.18;11.93;;;;;;;13.87;53.17;99955.19;5038961;27;99690;-87
2021/05/01 09:35:06;;;;;;;16.40;12.20;;;;;;;13.98;53.59;99945.78;5043160;27;96706;-86
2021/05/01 09:37:32;;;;;;;15.55;13.10;;;;;;;13.94;53.93;99940.75;5085157;27;97731;-86
2021/05/01 09:39:59;;;;;;;14.80;12.80;;;;;;;13.90;53.42;99942.69;5017885;27;101708;-87
2021/05/01 09:42:32;;;;;;;14.13;12.63;;;;;;;13.89;53.63;99951.53;5038811;27;101650;-83
2021/05/01 09:45:18;;;;;;;15.10;12.60;;;;;;;13.82;54.23;99968.66;5053697;27;96806;-85
2021/05/01 09:47:51;;;;;;;14.20;11.98;;;;;;;13.76;54.59;99967.19;5056336;27;96901;-85
2021/05/01 09:50:19;;;;;;;16.67;11.70;;;;;;;13.69;54.22;99952.59;5055627;27;102472;-85
2021/05/01 09:52:59;;;;;;;13.70;12.23;;;;;;;13.81;53.70;99956.38;5063764;27;98485;-84
2021/05/01 09:55:51;;;;;;;14.02;12.25;;;;;;;13.75;53.88;99960.19;5048245;27;97190;-86
2021/05/01 09:58:30;;;;;;;13.85;11.55;;;;;;;13.89;53.58;99946.28;5035978;27;97160;-86
2021/05/01 10:01:08;;;;;;;12.82;10.57;;;;;;;13.85;53.84;99944.75;5055490;27;101429;-85
2021/05/01 10:03:34;;;;;;;12.02;10.00;;;;;;;13.87;54.14;99940.22;5059829;27;101745;-87
2021/05/01 10:06:00;;;;;;;12.40;10.48;;;;;;;13.89;53.17;99948.06;5042368;27;96725;-86
2021/05/01 10:08:29;;;;;;;11.57;9.85;;;;;;;14.03;53.85;99956.94;5049954;27;96964;-86
2021/05/01 10:10:55;;;;;;;13.88;10.40;;;;;;;14.17;53.37;99953.56;5034675;27;101677;-87
2021/05/01 10:13:22;;;;;;;14.40;11.20;;;;;;;14.23;52.91;99941.81;5047436;27;98451;-86
2021/05/01 10:15:48;;;;;;;13.32;11.13;;;;;;;14.12;53.76;99946.81;5050057;27;96910;-87
2021/05/01 10:18:20;;;;;;;19.58;11.20;;;;;;;14.35;53.84;99930.56;5027915;27;96960;-87
2021/05/01 10:20:48;;;;;;;13.82;10.52;;;;;;;14.40;53.30;99931.16;5060420;27;98631;-87
2021/05/01 10:23:16;;;;;;;11.38;9.68;;;;;;;14.60;53.70;99945.06;5045205;27;99895;-87
2021/05/01 10:25:42;;;;;;;12.93;9.32;;;;;;;14.62;52.49;99937.91;5047570;27;97807;-86
2021/05/01 10:28:12;;;;;;;12.23;9.65;;;;;;;14.64;52.62;99942.16;5046045;27;97121;-86
2021/05/01 10:30:44;;;;;;;11.38;9.95;;;;;;;14.79;52.39;99942.22;5034330;27;101852;-86
2021/05/01 10:36:14;;;;;;;12.73;10.40;;;;;;;14.88;51.03;99934.63;5055782;27;97215;-86
2021/05/01 10:38:40;;;;;;;12.68;10.40;;;;;;;14.48;52.30;99922.78;5037073;27;96846;-87
2021/05/01 10:41:17;;;;;;;11.40;9.93;;;;;;;14.53;52.12;99912.88;5044855;27;101127;-86
2021/05/01 10:43:54;;;;;;;12.07;10.88;;;;;;;14.52;51.85;99910.31;5028787;27;101185;-86
2021/05/01 10:46:30;;;;;;;12.63;10.98;;;;;;;14.75;51.92;99907.22;5028324;27;97184;-85
2021/05/01 10:49:04;;;;;;;14.40;11.02;;;;;;;14.87;52.21;99921.50;5038431;27;97255;-87
2021/05/01 10:51:36;;;;;;;14.13;9.88;;;;;;;14.85;51.43;99918.94;5038834;27;101836;-86
2021/05/01 10:54:09;;;;;;;15.63;10.52;;;;;;;14.81;51.80;99933.28;5029631;27;101994;-86
2021/05/01 10:56:35;;;;;;;12.45;10.07;;;;;;;15.04;51.74;99941.63;5058660;27;96878;-87
2021/05/01 10:59:08;;;;;;;10.85;9.30;;;;;;;15.10;50.99;99934.22;5027470;27;97371;-87
2021/05/01 11:01:48;;;;;;;13.85;10.27;;;;;;;14.86;50.97;99935.63;5031588;27;101427;-85
2021/05/01 11:04:20;;;;;;;11.20;10.00;;;;;;;14.91;51.34;99933.59;5047543;27;100589;-86
2021/05/01 11:06:48;;;;;;;11.75;10.15;;;;;;;15.13;51.86;99939.31;5029983;27;98160;-85
2021/05/01 11:09:29;;;;;;;13.82;10.45;;;;;;;15.17;50.78;99942.63;5046232;27;96850;-86
2021/05/01 11:12:00;;;;;;;14.00;10.40;;;;;;;15.34;51.64;99939.00;5064679;27;101418;-86
2021/05/01 11:14:31;;;;;;;11.90;10.60;;;;;;;15.45;51.23;99939.22;5047765;27;101724;-85
2021/05/01 11:17:21;;;;;;;11.20;10.00;;;;;;;15.48;51.31;99939.03;5066696;27;97367;-86
2021/05/01 11:19:47;;;;;;;11.82;9.30;;;;;;;15.29;51.14;99933.97;5050842;27;97258;-87